Time;durP1;ratioP1;P1;durP2;ratioP2;P2;SDS_P1;SDS_P2;PMS_P1;PMS_P2;Temp;Humidity;BMP_temperature;BMP_pressure;BME280_temperature;BME280_humidity;BME280_pressure;Samples;Min_cycle;Max_cycle;Signal;HPM_P1;HPM_P2
2023/12/13 00:01:38;;;;;;;65.75;44.00;;;;;;;6.07;100.00;98738.88;5068203;28;20052;-77
2023/12/13 00:04:04;;;;;;;68.97;44.30;;;;;;;6.07;100.00;98736.25;5044802;28;20120;-77
2023/12/13 00:06:30;;;;;;;68.63;43.55;;;;;;;6.03;100.00;98740.13;5049947;28;20171;-77
2023/12/13 00:08:55;;;;;;;69.75;44.22;;;;;;;6.01;100.00;98742.03;5037313;28;20040;-77
2023/12/13 00:11:21;;;;;;;64.18;44.20;;;;;;;5.99;100.00;98754.44;5066487;28;20514;-77
2023/12/13 00:13:46;;;;;;;67.88;43.72;;;;;;;5.98;100.00;98765.88;5048494;28;20025;-77
2023/12/13 00:16:12;;;;;;;67.03;44.13;;;;;;;5.98;100.00;98763.25;5067368;28;20166;-77
2023/12/13 00:18:37;;;;;;;69.95;43.92;;;;;;;5.99;100.00;98762.31;5046083;28;20146;-78
2023/12/13 00:21:03;;;;;;;68.90;43.95;;;;;;;5.99;100.00;98751.81;5032592;28;20602;-78
2023/12/13 00:23:29;;;;;;;68.88;44.00;;;;;;;5.99;100.00;98727.44;5067155;28;20052;-78
2023/12/13 00:25:54;;;;;;;70.40;46.33;;;;;;;6.03;100.00;98716.53;5065400;28;20033;-78
2023/12/13 00:28:19;;;;;;;76.72;44.70;;;;;;;6.04;100.00;98684.16;5042773;28;20058;-78
2023/12/13 00:30:45;;;;;;;72.53;43.70;;;;;;;6.06;100.00;98690.09;5066101;28;20074;-76
2023/12/13 00:33:11;;;;;;;72.47;45.88;;;;;;;6.07;100.00;98710.06;5069387;28;20039;-76
2023/12/13 00:35:37;;;;;;;74.97;44.42;;;;;;;6.00;100.00;98719.44;5067170;28;20093;-76
2023/12/13 00:38:03;;;;;;;73.50;45.80;;;;;;;6.07;100.00;98704.00;5065535;28;20033;-76
2023/12/13 00:40:29;;;;;;;72.53;44.30;;;;;;;6.06;100.00;98692.72;5066158;28;20389;-77
2023/12/13 00:42:55;;;;;;;69.65;45.85;;;;;;;6.09;100.00;98658.38;5048742;28;20481;-77
2023/12/13 00:45:22;;;;;;;74.07;45.75;;;;;;;6.09;100.00;98645.28;5066770;28;20162;-77
2023/12/13 00:47:48;;;;;;;68.85;45.97;;;;;;;6.07;100.00;98647.19;5050231;28;20029;-77
2023/12/13 00:50:13;;;;;;;70.63;46.70;;;;;;;6.10;100.00;98652.19;5070420;28;20036;-76
2023/12/13 00:52:39;;;;;;;72.60;45.42;;;;;;;6.06;100.00;98645.56;5048621;28;20048;-77
2023/12/13 00:55:05;;;;;;;65.00;42.85;;;;;;;6.11;100.00;98653.00;5064476;28;20112;-77
2023/12/13 00:57:31;;;;;;;66.78;44.15;;;;;;;6.09;100.00;98674.09;5066596;28;20036;-76
2023/12/13 00:59:56;;;;;;;72.70;46.10;;;;;;;6.08;100.00;98711.72;5063577;28;20079;-77
2023/12/13 01:02:22;;;;;;;67.50;43.80;;;;;;;6.05;100.00;98714.63;5066467;28;20654;-77
2023/12/13 01:04:47;;;;;;;73.70;45.95;;;;;;;6.09;100.00;98686.38;5067289;28;20106;-76
2023/12/13 01:07:13;;;;;;;65.55;43.60;;;;;;;6.11;100.00;98676.59;5044792;28;20044;-76
2023/12/13 01:09:41;;;;;;;61.88;42.10;;;;;;;6.14;100.00;98673.69;5071775;28;20492;-78
2023/12/13 01:12:07;;;;;;;62.55;41.72;;;;;;;6.14;100.00;98658.78;5077125;28;20028;-76
2023/12/13 01:14:33;;;;;;;75.40;46.20;;;;;;;6.15;100.00;98649.16;5071673;28;20134;-77
2023/12/13 01:16:59;;;;;;;73.43;45.25;;;;;;;6.13;100.00;98656.31;5048392;28;20025;-78
2023/12/13 01:19:25;;;;;;;67.72;44.83;;;;;;;6.13;100.00;98662.38;5052894;28;20078;-78
2023/12/13 01:21:51;;;;;;;66.75;43.63;;;;;;;6.14;100.00;98634.38;5065213;28;20040;-78
2023/12/13 01:24:16;;;;;;;71.88;46.85;;;;;;;6.07;100.00;98610.53;5044538;28;20035;-79
2023/12/13 01:26:42;;;;;;;71.63;45.25;;;;;;;6.05;100.00;98622.13;5061829;28;20029;-77
2023/12/13 01:29:08;;;;;;;70.38;46.15;;;;;;;6.06;100.00;98634.28;5048642;28;20031;-76
2023/12/13 01:31:35;;;;;;;76.63;47.35;;;;;;;6.05;100.00;98638.69;5049903;28;20037;-77
2023/12/13 01:34:02;;;;;;;75.90;46.33;;;;;;;6.01;100.00;98637.28;5062856;28;20107;-78
2023/12/13 01:36:27;;;;;;;80.32;48.35;;;;;;;5.95;100.00;98657.97;5042797;28;20125;-78
2023/12/13 01:38:53;;;;;;;77.00;46.97;;;;;;;5.91;100.00;98665.25;5051348;28;20107;-79
2023/12/13 01:41:18;;;;;;;76.13;46.70;;;;;;;5.87;100.00;98674.34;5078172;28;20032;-79
2023/12/13 01:43:44;;;;;;;76.78;47.85;;;;;;;5.81;100.00;98671.41;5070204;28;20465;-78
2023/12/13 01:46:11;;;;;;;75.55;47.85;;;;;;;5.80;100.00;98670.56;5076719;28;20082;-79
2023/12/13 01:48:37;;;;;;;70.57;46.13;;;;;;;5.80;100.00;98662.72;5071406;28;20068;-78
2023/12/13 01:51:03;;;;;;;78.18;47.65;;;;;;;5.81;100.00;98656.53;5072435;28;20028;-77
2023/12/13 01:53:29;;;;;;;80.50;49.25;;;;;;;5.82;100.00;98652.94;5065353;28;20037;-78
2023/12/13 01:55:55;;;;;;;72.57;47.08;;;;;;;5.84;100.00;98635.28;5067980;28;20060;-78
2023/12/13 01:58:22;;;;;;;73.88;46.47;;;;;;;5.85;100.00;98631.72;5065971;28;20079;-78
2023/12/13 02:00:50;;;;;;;74.63;47.13;;;;;;;5.87;100.00;98629.84;5067018;28;20033;-77
2023/12/13 02:03:16;;;;;;;74.45;48.90;;;;;;;5.89;100.00;98617.41;5025929;28;20040;-77
2023/12/13 02:05:43;;;;;;;80.88;48.92;;;;;;;5.93;100.00;98623.22;5069720;28;20078;-76
2023/12/13 02:08:09;;;;;;;73.88;46.40;;;;;;;5.93;100.00;98617.97;5065454;28;20033;-77
2023/12/13 02:10:35;;;;;;;74.05;48.63;;;;;;;5.89;100.00;98600.91;5067705;28;20079;-76
2023/12/13 02:13:01;;;;;;;77.07;48.38;;;;;;;5.86;100.00;98599.34;5067582;28;20098;-77
2023/12/13 02:15:26;;;;;;;75.60;48.05;;;;;;;5.84;100.00;98611.72;5067609;28;20444;-78
2023/12/13 02:17:52;;;;;;;78.78;48.78;;;;;;;5.84;100.00;98606.50;5066946;28;20128;-77
2023/12/13 02:20:20;;;;;;;73.63;46.03;;;;;;;5.87;100.00;98603.66;5069075;28;20103;-76
2023/12/13 02:22:46;;;;;;;70.82;45.75;;;;;;;5.90;100.00;98587.66;5067562;28;20028;-76
2023/12/13 02:25:15;;;;;;;71.43;45.97;;;;;;;5.93;100.00;98566.44;5069925;28;20027;-75
2023/12/13 02:27:41;;;;;;;74.63;46.65;;;;;;;5.96;100.00;98550.44;5065307;28;20342;-77
2023/12/13 02:30:08;;;;;;;72.05;46.72;;;;;;;5.97;100.00;98557.34;5071392;28;20028;-77
2023/12/13 02:32:33;;;;;;;75.72;48.30;;;;;;;5.99;100.00;98551.97;5067484;28;20032;-77
2023/12/13 02:34:59;;;;;;;72.45;46.40;;;;;;;6.02;100.00;98539.41;5041043;28;20037;-77
2023/12/13 02:37:24;;;;;;;69.40;45.92;;;;;;;6.03;100.00;98541.06;5066769;28;20052;-78
2023/12/13 02:39:50;;;;;;;74.22;47.45;;;;;;;6.05;100.00;98539.16;5065778;28;20223;-78
2023/12/13 02:42:16;;;;;;;72.05;47.50;;;;;;;6.07;100.00;98558.16;5062739;28;20097;-76
2023/12/13 02:44:43;;;;;;;69.05;45.55;;;;;;;6.04;100.00;98578.56;5070468;28;20501;-76
2023/12/13 02:47:11;;;;;;;70.95;46.58;;;;;;;6.04;100.00;98579.41;5047164;28;20115;-78
2023/12/13 02:49:37;;;;;;;75.13;46.50;;;;;;;5.96;100.00;98571.41;5066120;28;20127;-77
2023/12/13 02:52:04;;;;;;;69.43;44.75;;;;;;;6.04;100.00;98545.34;5067793;28;20178;-77
2023/12/13 02:54:30;;;;;;;75.07;47.10;;;;;;;6.08;100.00;98565.06;5046472;28;20542;-78
2023/12/13 02:56:56;;;;;;;77.07;46.45;;;;;;;6.06;100.00;98572.25;5070844;28;20107;-77
2023/12/13 02:59:21;;;;;;;75.07;47.38;;;;;;;6.02;100.00;98560.38;5064684;28;20040;-77
2023/12/13 03:01:46;;;;;;;79.10;49.38;;;;;;;5.99;100.00;98573.75;5063094;28;20028;-78
2023/12/13 03:04:12;;;;;;;73.18;47.33;;;;;;;6.00;100.00;98562.31;5048652;28;20107;-77
2023/12/13 03:06:37;;;;;;;79.47;50.17;;;;;;;6.02;100.00;98528.13;5066062;28;20078;-78
2023/12/13 03:09:03;;;;;;;75.93;47.22;;;;;;;6.04;100.00;98505.25;5065998;28;20425;-76
2023/12/13 03:11:28;;;;;;;80.35;48.88;;;;;;;6.05;100.00;98518.22;5045425;28;20051;-77
2023/12/13 03:13:54;;;;;;;74.13;47.92;;;;;;;6.05;100.00;98539.16;5066248;28;20029;-77
2023/12/13 03:16:19;;;;;;;81.90;48.92;;;;;;;6.05;100.00;98538.31;5065955;28;20028;-77
2023/12/13 03:18:45;;;;;;;82.72;48.83;;;;;;;6.01;100.00;98561.31;5070586;28;20121;-77
2023/12/13 03:21:10;;;;;;;80.68;49.47;;;;;;;5.96;100.00;98566.16;5065075;28;20055;-77
2023/12/13 03:23:35;;;;;;;82.90;50.35;;;;;;;5.93;100.00;98549.91;5044602;28;20021;-77
2023/12/13 03:26:01;;;;;;;79.00;49.85;;;;;;;5.92;100.00;98529.91;5067638;28;20060;-77
2023/12/13 03:28:28;;;;;;;78.95;49.45;;;;;;;5.93;100.00;98513.25;5064493;28;20086;-77
2023/12/13 03:30:53;;;;;;;90.05;53.00;;;;;;;5.91;100.00;98520.41;5062112;28;20334;-77
2023/12/13 03:33:19;;;;;;;81.95;50.38;;;;;;;5.92;100.00;98520.28;5044323;28;20033;-77
2023/12/13 03:35:44;;;;;;;79.75;50.78;;;;;;;5.95;100.00;98516.56;5047736;28;20025;-76
2023/12/13 03:38:10;;;;;;;80.40;50.17;;;;;;;5.94;100.00;98520.97;5071343;28;20077;-76
2023/12/13 03:40:36;;;;;;;81.13;49.42;;;;;;;5.98;100.00;98535.44;5049912;28;20040;-78
2023/12/13 03:43:01;;;;;;;78.13;48.45;;;;;;;5.99;100.00;98528.41;5071570;28;20354;-78
2023/12/13 03:45:27;;;;;;;77.63;48.13;;;;;;;6.03;100.00;98524.53;5070479;28;20051;-78
2023/12/13 03:47:53;;;;;;;82.70;48.47;;;;;;;6.05;100.00;98507.72;5067061;28;20123;-78
2023/12/13 03:50:20;;;;;;;79.82;48.65;;;;;;;6.08;100.00;98504.81;5049418;28;20130;-78
2023/12/13 03:52:45;;;;;;;73.38;47.33;;;;;;;6.07;100.00;98500.53;5067730;28;20037;-78
2023/12/13 03:55:12;;;;;;;78.22;46.20;;;;;;;6.08;100.00;98507.44;5062314;28;20047;-78
2023/12/13 03:57:38;;;;;;;76.47;44.25;;;;;;;6.01;100.00;98503.72;5063892;28;20063;-78
2023/12/13 04:00:05;;;;;;;74.32;46.67;;;;;;;6.07;100.00;98500.53;5064365;28;20093;-78
2023/12/13 04:02:38;;;;;;;81.38;46.60;;;;;;;6.07;100.00;98491.84;5066144;28;20033;-78
2023/12/13 04:05:04;;;;;;;81.38;47.08;;;;;;;6.09;100.00;98482.91;5067985;28;20029;-77
2023/12/13 04:07:29;;;;;;;78.15;47.78;;;;;;;6.03;100.00;98467.75;5065688;28;20463;-77
2023/12/13 04:09:54;;;;;;;75.38;45.42;;;;;;;6.08;100.00;98476.00;5062984;28;20029;-77
2023/12/13 04:12:20;;;;;;;74.90;46.42;;;;;;;6.07;100.00;98478.75;5067709;28;20090;-77
2023/12/13 04:14:45;;;;;;;77.03;46.50;;;;;;;6.11;100.00;98480.97;5037641;28;20463;-77
2023/12/13 04:17:11;;;;;;;74.55;45.72;;;;;;;6.12;100.00;98485.25;5063810;28;20032;-78
2023/12/13 04:19:37;;;;;;;74.35;44.15;;;;;;;6.14;100.00;98483.31;5065637;28;20032;-77
2023/12/13 04:22:03;;;;;;;78.05;44.97;;;;;;;6.14;100.00;98496.41;5064643;28;20037;-77
2023/12/13 04:24:28;;;;;;;78.20;43.13;;;;;;;6.11;100.00;98512.41;5066828;28;20037;-77
2023/12/13 04:26:54;;;;;;;73.13;44.53;;;;;;;6.07;100.00;98511.00;5067704;28;20085;-78
2023/12/13 04:29:19;;;;;;;76.13;46.38;;;;;;;6.06;100.00;98488.44;5065937;28;20397;-77
2023/12/13 04:31:45;;;;;;;77.68;45.03;;;;;;;6.07;100.00;98484.00;5065867;28;20032;-78
2023/12/13 04:34:10;;;;;;;79.57;45.38;;;;;;;6.10;100.00;98484.56;5067982;28;20035;-78
2023/12/13 04:36:36;;;;;;;81.40;46.60;;;;;;;6.12;100.00;98479.19;5042861;28;20029;-78
2023/12/13 04:39:02;;;;;;;84.35;46.75;;;;;;;6.11;100.00;98460.03;5067459;28;20396;-77
2023/12/13 04:41:28;;;;;;;83.57;47.50;;;;;;;6.10;100.00;98463.59;5065496;28;20028;-78
2023/12/13 04:43:53;;;;;;;75.60;44.38;;;;;;;6.10;100.00;98474.09;5035027;28;20477;-77
2023/12/13 04:46:19;;;;;;;85.03;47.17;;;;;;;6.11;100.00;98470.50;5066120;28;20039;-77
2023/12/13 04:48:44;;;;;;;85.25;46.67;;;;;;;6.10;100.00;98479.31;5061030;28;20029;-77
2023/12/13 04:51:10;;;;;;;86.15;46.65;;;;;;;6.09;100.00;98487.31;5065222;28;20035;-77
2023/12/13 04:53:35;;;;;;;83.00;47.80;;;;;;;6.08;100.00;98481.25;5062605;28;20392;-77
2023/12/13 04:56:01;;;;;;;84.38;47.85;;;;;;;6.09;100.00;98461.94;5064370;28;20039;-78
2023/12/13 04:58:27;;;;;;;76.93;46.38;;;;;;;6.11;100.00;98456.56;5065027;28;20029;-78
2023/12/13 05:00:52;;;;;;;81.65;48.17;;;;;;;6.13;100.00;98450.22;5065617;28;20029;-78
2023/12/13 05:03:18;;;;;;;86.55;46.90;;;;;;;6.14;100.00;98449.25;5062778;28;20044;-77
2023/12/13 05:05:43;;;;;;;83.22;45.15;;;;;;;6.14;100.00;98464.97;5068062;28;20056;-77
2023/12/13 05:08:12;;;;;;;81.88;47.00;;;;;;;6.14;100.00;98472.81;5063204;28;20029;-77
2023/12/13 05:10:43;;;;;;;77.10;45.47;;;;;;;6.18;100.00;98455.84;5065327;28;20041;-78
2023/12/13 05:13:09;;;;;;;78.93;45.50;;;;;;;6.21;100.00;98459.16;5047165;28;20049;-77
2023/12/13 05:15:35;;;;;;;78.55;43.58;;;;;;;6.21;100.00;98456.53;5067691;28;20036;-76
2023/12/13 05:18:00;;;;;;;85.53;46.95;;;;;;;6.23;100.00;98465.94;5065351;28;20032;-76
2023/12/13 05:20:26;;;;;;;83.20;45.85;;;;;;;6.23;100.00;98467.72;5067207;28;20481;-77
2023/12/13 05:22:51;;;;;;;82.50;44.13;;;;;;;6.23;100.00;98472.97;5065932;28;20033;-77
2023/12/13 05:25:16;;;;;;;79.22;43.40;;;;;;;6.07;100.00;98484.81;5068637;28;20040;-79
2023/12/13 05:27:45;;;;;;;82.28;44.80;;;;;;;6.11;100.00;98482.78;5067959;28;20029;-78
2023/12/13 05:30:10;;;;;;;89.25;45.83;;;;;;;6.03;100.00;98472.16;5073004;28;20089;-78
2023/12/13 05:32:36;;;;;;;90.13;46.15;;;;;;;5.89;100.00;98452.47;5070173;28;20144;-81
2023/12/13 05:35:02;;;;;;;86.63;45.42;;;;;;;5.98;100.00;98458.66;5063057;28;20041;-79
2023/12/13 05:37:28;;;;;;;101.10;50.45;;;;;;;5.98;100.00;98454.25;5067906;28;20040;-76
2023/12/13 05:39:53;;;;;;;84.45;46.45;;;;;;;5.97;100.00;98425.59;5064923;28;20125;-76
2023/12/13 05:42:19;;;;;;;89.53;47.92;;;;;;;5.98;100.00;98427.25;5068932;28;20147;-76
2023/12/13 05:44:46;;;;;;;85.30;48.53;;;;;;;5.99;100.00;98427.09;5068541;28;20346;-77
2023/12/13 05:47:12;;;;;;;87.30;47.08;;;;;;;5.92;100.00;98412.94;5066614;28;20419;-75
2023/12/13 05:49:37;;;;;;;80.97;45.97;;;;;;;5.92;100.00;98402.44;5071860;28;20093;-76
2023/12/13 05:52:03;;;;;;;80.78;45.85;;;;;;;5.93;100.00;98388.41;5068314;28;20040;-77
2023/12/13 05:54:29;;;;;;;81.20;45.85;;;;;;;5.94;100.00;98400.53;5067973;28;20082;-77
2023/12/13 05:56:55;;;;;;;87.22;46.58;;;;;;;5.96;100.00;98403.81;5046764;28;20043;-77
2023/12/13 05:59:20;;;;;;;83.55;46.60;;;;;;;6.02;100.00;98405.84;5070386;28;20024;-78
2023/12/13 06:01:46;;;;;;;82.38;44.72;;;;;;;6.02;100.00;98403.25;5064845;28;20473;-76
2023/12/13 06:04:11;;;;;;;79.30;45.75;;;;;;;5.97;100.00;98415.94;5051322;28;20047;-75
2023/12/13 06:06:42;;;;;;;88.35;45.75;;;;;;;6.03;100.00;98417.16;5068488;28;20032;-76
2023/12/13 06:09:09;;;;;;;85.18;43.95;;;;;;;5.99;100.00;98426.28;5078085;28;20507;-75
2023/12/13 06:11:35;;;;;;;77.78;45.78;;;;;;;6.06;100.00;98419.50;5058397;28;20374;-76
2023/12/13 06:14:00;;;;;;;82.10;43.50;;;;;;;5.98;100.00;98416.75;5070712;28;20093;-75
2023/12/13 06:16:26;;;;;;;86.78;45.50;;;;;;;6.02;100.00;98416.34;5071874;28;20031;-77
2023/12/13 06:18:51;;;;;;;84.15;44.90;;;;;;;6.09;100.00;98419.22;5065351;28;20082;-75
2023/12/13 06:21:16;;;;;;;93.60;46.42;;;;;;;6.03;100.00;98410.13;5050858;28;20080;-75
2023/12/13 06:23:42;;;;;;;81.68;43.40;;;;;;;6.11;100.00;98412.06;5069436;28;20040;-76
2023/12/13 06:26:07;;;;;;;89.95;45.50;;;;;;;6.08;100.00;98407.09;5069096;28;20025;-77
2023/12/13 06:28:33;;;;;;;86.68;44.28;;;;;;;6.11;100.00;98406.81;5069178;28;20040;-77
2023/12/13 06:30:59;;;;;;;90.30;42.20;;;;;;;6.15;100.00;98408.16;5069517;28;20032;-77
2023/12/13 06:33:25;;;;;;;96.40;45.35;;;;;;;6.14;100.00;98411.75;5069152;28;20035;-77
2023/12/13 06:35:50;;;;;;;96.63;46.17;;;;;;;6.09;100.00;98411.34;5063450;28;20029;-75
2023/12/13 06:38:16;;;;;;;90.13;44.83;;;;;;;6.05;100.00;98429.16;5070053;28;20079;-76
2023/12/13 06:40:42;;;;;;;106.97;47.72;;;;;;;6.01;100.00;98426.94;5064076;28;20078;-76
2023/12/13 06:43:08;;;;;;;98.80;45.20;;;;;;;5.99;100.00;98426.28;5065460;28;20460;-76
2023/12/13 06:45:33;;;;;;;94.07;41.63;;;;;;;5.98;100.00;98412.34;5066453;28;20125;-75
2023/12/13 06:47:59;;;;;;;108.03;44.95;;;;;;;5.97;100.00;98417.72;5065478;28;20472;-75
2023/12/13 06:50:24;;;;;;;104.82;48.65;;;;;;;5.92;100.00;98433.88;5065474;28;20033;-76
2023/12/13 06:52:51;;;;;;;105.70;48.90;;;;;;;5.92;100.00;98412.94;5048450;28;20488;-74
2023/12/13 06:55:18;;;;;;;98.70;47.97;;;;;;;5.94;100.00;98405.75;5066595;28;20028;-76
2023/12/13 06:57:44;;;;;;;107.60;48.75;;;;;;;5.96;100.00;98406.44;5048889;28;20090;-74
2023/12/13 07:00:11;;;;;;;105.93;49.53;;;;;;;5.97;100.00;98410.69;5065803;28;20028;-75
2023/12/13 07:02:37;;;;;;;107.75;48.42;;;;;;;6.00;100.00;98399.97;5038257;28;20033;-75
2023/12/13 07:05:02;;;;;;;108.97;49.78;;;;;;;6.03;100.00;98386.56;5066482;28;20051;-75
2023/12/13 07:07:28;;;;;;;104.32;45.92;;;;;;;6.04;100.00;98380.38;5066768;28;20256;-76
2023/12/13 07:09:53;;;;;;;109.53;50.05;;;;;;;6.06;100.00;98373.19;5062833;28;20025;-75
2023/12/13 07:12:20;;;;;;;104.85;47.85;;;;;;;6.08;100.00;98360.78;5068743;28;20491;-76
2023/12/13 07:14:45;;;;;;;97.93;45.00;;;;;;;6.09;100.00;98362.44;5064305;28;20520;-75
2023/12/13 07:17:11;;;;;;;113.03;47.92;;;;;;;6.14;100.00;98362.00;5065877;28;20063;-76
2023/12/13 07:19:36;;;;;;;102.93;47.65;;;;;;;6.14;100.00;98360.19;5068909;28;20032;-75
2023/12/13 07:22:02;;;;;;;104.40;46.33;;;;;;;6.16;100.00;98353.03;5062608;28;20370;-76
2023/12/13 07:24:28;;;;;;;103.80;46.13;;;;;;;6.18;100.00;98350.28;5068300;28;20033;-76
2023/12/13 07:26:53;;;;;;;105.00;47.60;;;;;;;6.19;100.00;98351.91;5067230;28;20035;-75
2023/12/13 07:29:19;;;;;;;109.35;47.72;;;;;;;6.22;100.00;98361.28;5061222;28;20032;-75
2023/12/13 07:31:45;;;;;;;99.30;48.47;;;;;;;6.22;100.00;98340.31;5068185;28;20507;-75
2023/12/13 07:34:11;;;;;;;106.53;46.88;;;;;;;6.22;100.00;98332.47;5062787;28;20032;-74
2023/12/13 07:36:37;;;;;;;107.00;48.67;;;;;;;6.22;100.00;98341.16;5065118;28;20040;-74
2023/12/13 07:39:03;;;;;;;109.28;47.40;;;;;;;6.24;100.00;98335.78;5066357;28;20025;-75
2023/12/13 07:41:29;;;;;;;109.10;48.90;;;;;;;6.24;100.00;98323.50;5060448;28;20044;-75
2023/12/13 07:43:54;;;;;;;100.53;46.63;;;;;;;6.24;100.00;98327.91;5065464;28;20326;-73
2023/12/13 07:46:20;;;;;;;119.00;47.38;;;;;;;6.22;100.00;98335.09;5062708;28;20078;-76
2023/12/13 07:48:46;;;;;;;107.80;48.55;;;;;;;6.25;100.00;98346.09;5061977;28;20542;-76
2023/12/13 07:51:12;;;;;;;121.57;48.72;;;;;;;6.28;100.00;98344.97;5068105;28;20020;-75
2023/12/13 07:53:38;;;;;;;107.55;45.92;;;;;;;6.22;100.00;98343.78;5062957;28;20071;-75
2023/12/13 07:56:06;;;;;;;104.57;44.80;;;;;;;6.22;100.00;98340.31;5064691;28;20025;-74
2023/12/13 07:58:31;;;;;;;109.85;47.97;;;;;;;6.25;100.00;98329.53;5065035;28;20041;-73
2023/12/13 08:00:57;;;;;;;118.10;47.10;;;;;;;6.26;100.00;98331.19;5068705;28;20028;-74
2023/12/13 08:03:22;;;;;;;117.07;45.45;;;;;;;6.23;100.00;98318.41;5063810;28;20083;-73
2023/12/13 08:05:48;;;;;;;128.55;49.33;;;;;;;6.23;100.00;98334.94;5067202;28;20145;-76
2023/12/13 08:08:14;;;;;;;110.28;47.15;;;;;;;6.23;100.00;98336.75;5061315;28;20036;-76
2023/12/13 08:10:41;;;;;;;106.20;45.85;;;;;;;6.22;100.00;98332.47;5066505;28;20032;-73
2023/12/13 08:13:06;;;;;;;121.10;45.70;;;;;;;6.23;100.00;98337.56;5062184;28;20469;-74
2023/12/13 08:15:32;;;;;;;115.80;48.00;;;;;;;6.25;100.00;98319.88;5043092;28;20035;-74
2023/12/13 08:17:57;;;;;;;110.93;45.72;;;;;;;6.27;100.00;98296.19;5063954;28;20036;-73
2023/12/13 08:20:28;;;;;;;106.28;44.17;;;;;;;6.31;100.00;98297.53;5064910;28;20205;-75
2023/12/13 08:22:55;;;;;;;114.82;45.58;;;;;;;6.35;100.00;98314.63;5067118;28;20033;-73
2023/12/13 08:25:21;;;;;;;111.70;44.92;;;;;;;6.40;100.00;98315.00;5060872;28;20027;-75
2023/12/13 08:27:46;;;;;;;113.63;44.08;;;;;;;6.46;100.00;98315.25;5065722;28;20124;-74
2023/12/13 08:30:12;;;;;;;119.10;44.72;;;;;;;6.49;100.00;98316.72;5065386;28;20086;-75
2023/12/13 08:32:37;;;;;;;113.80;45.80;;;;;;;6.55;100.00;98316.97;5064459;28;20489;-75
2023/12/13 08:35:04;;;;;;;119.60;45.78;;;;;;;6.64;100.00;98317.88;5039299;28;20047;-75
2023/12/13 08:37:29;;;;;;;120.05;45.92;;;;;;;6.73;100.00;98306.50;5066550;28;20177;-74
2023/12/13 08:39:55;;;;;;;125.68;46.92;;;;;;;6.76;100.00;98314.09;5036573;28;20041;-74
2023/12/13 08:42:20;;;;;;;119.95;43.70;;;;;;;6.68;100.00;98319.22;5067039;28;20041;-75
2023/12/13 08:44:46;;;;;;;115.68;42.65;;;;;;;6.83;100.00;98325.59;5064126;28;20025;-75
2023/12/13 08:47:11;;;;;;;110.60;41.45;;;;;;;6.86;100.00;98320.06;5062216;28;20480;-75
2023/12/13 08:49:37;;;;;;;117.90;43.10;;;;;;;6.90;100.00;98315.34;5067263;28;20337;-75
2023/12/13 08:52:02;;;;;;;99.28;39.60;;;;;;;6.94;100.00;98314.91;5065274;28;20079;-74
2023/12/13 08:54:28;;;;;;;111.75;40.83;;;;;;;6.97;100.00;98293.63;5039598;28;20486;-74
2023/12/13 08:56:53;;;;;;;100.93;40.92;;;;;;;6.99;100.00;98289.06;5068334;28;20453;-75
2023/12/13 08:59:19;;;;;;;107.90;41.38;;;;;;;7.02;100.00;98282.66;5066368;28;20050;-75
2023/12/13 09:01:45;;;;;;;111.95;43.15;;;;;;;7.07;100.00;98275.16;5060915;28;20044;-72
2023/12/13 09:04:10;;;;;;;104.90;41.38;;;;;;;7.09;100.00;98282.91;5064854;28;20389;-74
2023/12/13 09:06:37;;;;;;;105.15;44.60;;;;;;;7.09;100.00;98278.47;5063660;28;20036;-75
2023/12/13 09:09:04;;;;;;;111.13;45.50;;;;;;;7.09;100.00;98282.91;5064874;28;20040;-72
2023/12/13 09:11:29;;;;;;;118.35;47.15;;;;;;;7.11;100.00;98301.94;5065108;28;20117;-74
2023/12/13 09:13:55;;;;;;;110.47;45.35;;;;;;;7.12;100.00;98300.97;5065046;28;20111;-73
2023/12/13 09:16:21;;;;;;;117.50;46.60;;;;;;;7.13;100.00;98311.28;5038300;28;20071;-75
2023/12/13 09:18:46;;;;;;;114.78;45.03;;;;;;;7.16;100.00;98304.94;5064036;28;20484;-74
2023/12/13 09:21:12;;;;;;;105.63;46.08;;;;;;;7.20;100.00;98306.25;5064655;28;20067;-74
2023/12/13 09:23:40;;;;;;;115.20;43.97;;;;;;;7.23;100.00;98298.09;5030413;28;20053;-75
2023/12/13 09:26:06;;;;;;;106.20;46.03;;;;;;;7.17;100.00;98310.03;5030998;28;20075;-74
2023/12/13 09:28:35;;;;;;;108.47;45.80;;;;;;;7.15;100.00;98329.50;5064300;28;20112;-74
2023/12/13 09:31:02;;;;;;;127.30;48.67;;;;;;;7.04;100.00;98333.19;5065433;28;20342;-74
2023/12/13 09:33:29;;;;;;;112.93;47.83;;;;;;;7.12;100.00;98325.41;5065429;28;20041;-74
2023/12/13 09:35:55;;;;;;;111.50;48.17;;;;;;;7.15;100.00;98326.88;5061819;28;20031;-75
2023/12/13 09:38:21;;;;;;;115.63;47.75;;;;;;;7.17;100.00;98332.81;5065881;28;20025;-75
2023/12/13 09:40:49;;;;;;;107.20;48.72;;;;;;;7.20;100.00;98328.06;5065739;28;20111;-75
2023/12/13 09:43:15;;;;;;;112.47;47.45;;;;;;;7.26;100.00;98305.66;5062067;28;20045;-75
2023/12/13 09:45:41;;;;;;;120.70;49.65;;;;;;;7.26;100.00;98303.84;5064949;28;20495;-75
2023/12/13 09:48:09;;;;;;;102.65;47.60;;;;;;;7.25;100.00;98306.63;5065695;28;20032;-73
2023/12/13 09:50:36;;;;;;;107.97;46.38;;;;;;;7.30;100.00;98312.28;5048247;28;20036;-75
2023/12/13 09:53:04;;;;;;;114.05;47.70;;;;;;;7.33;100.00;98314.56;5063787;28;20054;-73
2023/12/13 09:55:30;;;;;;;108.05;47.20;;;;;;;7.32;100.00;98326.88;5057585;28;20047;-75
2023/12/13 09:57:56;;;;;;;109.80;48.45;;;;;;;7.33;100.00;98330.31;5067272;28;20025;-74
2023/12/13 10:00:22;;;;;;;115.75;47.75;;;;;;;7.29;100.00;98323.75;5066138;28;20039;-76
2023/12/13 10:02:47;;;;;;;115.15;46.65;;;;;;;7.24;100.00;98323.38;5067102;28;20069;-74
2023/12/13 10:05:17;;;;;;;107.57;45.72;;;;;;;7.23;100.00;98327.78;5068512;28;20021;-74
2023/12/13 10:07:42;;;;;;;107.53;46.83;;;;;;;7.28;100.00;98329.94;5066074;28;20119;-74
2023/12/13 10:10:09;;;;;;;112.78;45.13;;;;;;;7.29;100.00;98334.22;5065715;28;20039;-74
2023/12/13 10:12:35;;;;;;;107.47;45.45;;;;;;;7.19;100.00;98325.59;5063595;28;20489;-75
2023/12/13 10:15:11;;;;;;;101.72;44.63;;;;;;;7.26;100.00;98337.97;5065380;28;20392;-75
2023/12/13 10:17:38;;;;;;;97.72;41.53;;;;;;;7.27;100.00;98344.03;5065301;28;20032;-75
2023/12/13 10:20:06;;;;;;;99.88;44.40;;;;;;;7.19;100.00;98347.41;5064865;28;20495;-75
2023/12/13 10:22:32;;;;;;;104.93;44.65;;;;;;;7.16;100.00;98354.78;5062987;28;20080;-74
2023/12/13 10:24:58;;;;;;;107.07;45.13;;;;;;;7.14;100.00;98333.09;5070277;28;20024;-75
2023/12/13 10:27:24;;;;;;;110.15;44.97;;;;;;;7.16;100.00;98315.44;5065038;28;20159;-75
2023/12/13 10:29:51;;;;;;;107.50;45.85;;;;;;;7.15;100.00;98311.16;5067093;28;20039;-75
2023/12/13 10:32:18;;;;;;;99.25;42.72;;;;;;;7.17;100.00;98291.66;5072960;28;20048;-75
2023/12/13 10:34:44;;;;;;;102.50;42.95;;;;;;;7.00;100.00;98282.03;5067889;28;20369;-75
2023/12/13 10:37:12;;;;;;;104.68;42.95;;;;;;;7.00;100.00;98284.66;5067043;28;20036;-77
2023/12/13 10:39:44;;;;;;;99.15;40.42;;;;;;;7.14;100.00;98285.88;5069142;28;20128;-74
2023/12/13 10:42:13;;;;;;;93.30;37.67;;;;;;;7.14;100.00;98270.13;5065305;28;20041;-74
2023/12/13 10:44:40;;;;;;;100.40;39.35;;;;;;;7.20;100.00;98265.13;5066510;28;20072;-76
2023/12/13 10:47:08;;;;;;;99.22;40.33;;;;;;;7.27;100.00;98260.09;5051569;28;20064;-75
2023/12/13 10:49:35;;;;;;;92.75;39.13;;;;;;;7.16;100.00;98252.47;5066452;28;20072;-74
2023/12/13 10:52:04;;;;;;;87.55;39.28;;;;;;;7.27;100.00;98250.41;5066941;28;20036;-75
2023/12/13 10:54:31;;;;;;;93.45;39.40;;;;;;;7.27;100.00;98237.28;5045167;28;20040;-74
2023/12/13 10:56:57;;;;;;;97.50;39.83;;;;;;;7.25;100.00;98225.28;5069530;28;20043;-77
2023/12/13 10:59:25;;;;;;;95.70;39.15;;;;;;;7.30;100.00;98223.06;5069254;28;20016;-76
2023/12/13 11:01:53;;;;;;;95.05;38.33;;;;;;;7.33;100.00;98222.72;5064848;28;20276;-75
2023/12/13 11:04:19;;;;;;;87.43;38.00;;;;;;;7.30;100.00;98225.69;5071045;28;20036;-77
2023/12/13 11:06:47;;;;;;;81.88;35.55;;;;;;;7.28;100.00;98231.06;5066172;28;20036;-76
2023/12/13 11:09:14;;;;;;;80.30;33.90;;;;;;;7.33;100.00;98227.97;5064932;28;20524;-76